This is the latest recevied weather packets stored in our database for station/object R1CBW-13. If no packets are shown the sender has not sent any weather packets the latest 10 day(s).
| Time | Temp. | Humidity | Pressure | Rain* | Wind** | Luminosity | Snow |
|---|---|---|---|---|---|---|---|
| 1777134907 | 7.22° C | 85% | 990 hPa | 0 mm | - | - | - |
| 1777134847 | 7.22° C | 86% | 990 hPa | 0 mm | - | - | - |
| 1777134787 | 6.67° C | 86% | 990 hPa | 0 mm | - | - | - |
| 1777134727 | 6.67° C | 88% | 990 hPa | 0 mm | - | - | - |
| 1777134667 | 6.11° C | 89% | 990.1 hPa | 0 mm | - | - | - |
| 1777134607 | 6.67° C | 86% | 990 hPa | 0 mm | - | - | - |
| 1777134547 | 6.67° C | 86% | 990 hPa | 0 mm | - | - | - |
| 1777134487 | 6.67° C | 89% | 990.1 hPa | 0 mm | - | - | - |
| 1777134427 | 6.67° C | 89% | 990 hPa | 0 mm | - | - | - |
| 1777134367 | 6.11° C | 91% | 990.2 hPa | 0 mm | - | - | - |
| 1777134307 | 6.11° C | 90% | 990.2 hPa | 0 mm | - | - | - |
| 1777134247 | 6.11° C | 88% | 990.2 hPa | 0 mm | - | - | - |
| 1777134187 | 6.11° C | 87% | 990.2 hPa | 0 mm | - | - | - |
| 1777134127 | 6.11° C | 87% | 990.2 hPa | 0 mm | - | - | - |
| 1777134067 | 7.22° C | 86% | 990.2 hPa | 0 mm | - | - | - |
| 1777134007 | 6.11° C | 88% | 990.2 hPa | 0 mm | - | - | - |
| 1777133946 | 6.67° C | 86% | 990.2 hPa | 0 mm | - | - | - |
| 1777133887 | 6.67° C | 85% | 990.2 hPa | 0 mm | - | - | - |
| 1777133827 | 6.67° C | 85% | 990.2 hPa | 0 mm | - | - | - |
| 1777133767 | 6.11° C | 86% | 990.3 hPa | 0 mm | - | - | - |
| 1777133706 | 6.67° C | 86% | 990.3 hPa | 0 mm | - | - | - |
| 1777133647 | 6.67° C | 84% | 990.3 hPa | 0 mm | - | - | - |
| 1777133586 | 6.67° C | 86% | 990.3 hPa | 0 mm | - | - | - |
| 1777133527 | 6.67° C | 86% | 990.3 hPa | 0 mm | - | - | - |
| 1777133467 | 6.67° C | 85% | 990.4 hPa | 0 mm | - | - | - |
* Rain latest hour (hover to see other rain measurements)
** Current wind speed in m/s (hover to see current wind gust speed)